Aérodrome :
LOGIN :

S'inscrire | Disclaimer

   EN    FR    IT 

 










Légende :    VFR   VFR Marginal   IFR   IFR Intensif   IFR Très Intensif
Visi : 
Plafond : 
>= 8 km
>= 3000ft
5 à 8 km
1000 à 3000 ft
1500m à 5 km
500 à 1000 ft
800 à 1500m
200 à 500 ft
< 800m
< 200 ft
Symboles :   Orages  Brouillard  Fortes neiges  Fortes précipitations  Vent > 20 kt
SIGMETs :   Divers  Orages  Givrage  Turbulence  Onde Orograph.  Cendres Volcan.






- Altitude de l'aérodrome : 203 ft
- Code IATA : XMJ


LFBM - Mont-De-Marsan

DERNIER METAR :
  • 191900Z AUTO 02008KT CAVOK 04/M03 Q1036 NOSIG

METARs EXPIRÉS :
  • 191830Z AUTO 04009KT 010V070 CAVOK 05/M03 Q1035 NOSIG
  • 191800Z AUTO 02009KT CAVOK 05/M03 Q1035 NOSIG
  • 191730Z AUTO 02009KT CAVOK 05/M03 Q1035 NOSIG
  • 191700Z AUTO 03009KT CAVOK 06/M03 Q1034 NOSIG
  • 191630Z AUTO 03011KT CAVOK 07/M03 Q1034 NOSIG

TAF TAF LFBM
Valide du 19 à 15h jusqu'au 20 à 15h UTC


191400Z 1915/2015 03012KT CAVOK
TEMPO 2003/2009 BKN007



MET'MAP, la Météo Aéronautique d'un coup d'oeil ! - Copyright ORBIFLY Décembre 2007 - Disclaimer

ORBIFLY MET'MAP TEAM :

Programmation & Développement : Alexandra Zaïnal
Sur une idée originale de : Baudouin d'Aumeries
Assistance à la programmation : Marc-Olivier Méhu
Soutien technique & logistique : Manuel Goepfert

Contact : metmap@orbifly.com




SOURCES & CREDITS :

   NOAA